createdAt,value
2023-11-10T00:00:25.612Z,8.03
2023-11-10T00:02:52.400Z,8.04
2023-11-10T00:05:19.144Z,8.03
2023-11-10T00:07:45.882Z,7.98
2023-11-10T00:10:12.626Z,7.95
2023-11-10T00:12:39.236Z,7.93
2023-11-10T00:15:06.302Z,7.90
2023-11-10T00:17:32.867Z,7.86
2023-11-10T00:19:59.450Z,7.83
2023-11-10T00:22:26.039Z,7.80
2023-11-10T00:24:52.622Z,7.80
2023-11-10T00:27:19.258Z,7.80
2023-11-10T00:29:46.087Z,7.79
2023-11-10T00:32:13.141Z,7.80
2023-11-10T00:34:40.291Z,7.79
2023-11-10T00:37:06.925Z,7.78
2023-11-10T00:39:33.562Z,7.79
2023-11-10T00:42:00.147Z,7.77
2023-11-10T00:44:26.920Z,7.75
2023-11-10T00:46:53.527Z,7.74
2023-11-10T00:49:20.095Z,7.75
2023-11-10T00:51:46.746Z,7.73
2023-11-10T00:54:13.366Z,7.72
2023-11-10T00:56:39.980Z,7.68
2023-11-10T00:59:06.551Z,7.62
2023-11-10T01:01:35.082Z,7.48
2023-11-10T01:04:01.776Z,7.36
2023-11-10T01:06:28.757Z,7.27
2023-11-10T01:08:55.646Z,7.18
2023-11-10T01:11:22.236Z,7.12
2023-11-10T01:13:48.796Z,7.12
2023-11-10T01:16:15.479Z,7.08
2023-11-10T01:18:42.389Z,7.06
2023-11-10T01:21:09.149Z,7.04
2023-11-10T01:23:35.857Z,7.02
2023-11-10T01:26:02.480Z,6.98
2023-11-10T01:28:29.041Z,6.97
2023-11-10T01:30:55.688Z,6.95
2023-11-10T01:33:22.541Z,6.95
2023-11-10T01:35:49.250Z,6.96
2023-11-10T01:38:15.896Z,6.95
2023-11-10T01:40:43.085Z,6.82
2023-11-10T01:43:10.672Z,6.92
2023-11-10T01:45:37.325Z,6.88
2023-11-10T01:48:04.957Z,6.89
2023-11-10T01:50:32.168Z,6.93
2023-11-10T01:52:59.329Z,6.92
2023-11-10T01:55:26.443Z,6.93
2023-11-10T01:57:53.414Z,6.93
2023-11-10T02:00:20.222Z,6.92
2023-11-10T02:02:46.989Z,6.96
2023-11-10T02:05:13.607Z,6.99
2023-11-10T02:07:41.089Z,6.99
2023-11-10T02:10:07.858Z,6.99
2023-11-10T02:12:34.482Z,7.02
2023-11-10T02:15:01.103Z,7.03
2023-11-10T02:17:27.688Z,7.06
2023-11-10T02:19:54.294Z,7.10
2023-11-10T02:22:20.875Z,7.12
2023-11-10T02:24:47.543Z,7.07
2023-11-10T02:27:14.154Z,7.08
2023-11-10T02:29:41.570Z,7.07
2023-11-10T02:32:08.139Z,7.06
2023-11-10T02:34:34.767Z,7.08
2023-11-10T02:37:01.348Z,7.10
2023-11-10T02:39:27.990Z,7.13
2023-11-10T02:41:54.580Z,7.15
2023-11-10T02:44:21.483Z,7.13
2023-11-10T02:46:48.342Z,7.14
2023-11-10T02:49:14.953Z,7.10
2023-11-10T02:51:41.516Z,7.09
2023-11-10T02:54:08.098Z,7.09
2023-11-10T02:56:34.708Z,7.12
2023-11-10T02:59:01.306Z,7.12
2023-11-10T03:01:28.079Z,7.13
2023-11-10T03:03:54.816Z,7.13
2023-11-10T03:06:21.486Z,7.15
2023-11-10T03:08:48.090Z,7.15
2023-11-10T03:11:14.701Z,7.17
2023-11-10T03:13:42.191Z,7.17
2023-11-10T03:16:08.863Z,7.13
2023-11-10T03:18:35.527Z,7.16
2023-11-10T03:21:02.220Z,7.16
2023-11-10T03:23:28.862Z,7.19
2023-11-10T03:25:55.481Z,7.19
2023-11-10T03:28:22.066Z,7.13
2023-11-10T03:30:48.680Z,7.19
2023-11-10T03:33:15.290Z,7.21
2023-11-10T03:35:41.892Z,7.21
2023-11-10T03:38:08.509Z,7.20
2023-11-10T03:40:35.109Z,7.20
2023-11-10T03:43:01.681Z,7.23
2023-11-10T03:45:28.275Z,7.24
2023-11-10T03:47:54.921Z,7.25
2023-11-10T03:50:21.524Z,7.26
2023-11-10T03:52:48.107Z,7.28
2023-11-10T03:55:14.663Z,7.29
2023-11-10T03:57:41.274Z,7.26
2023-11-10T04:00:08.468Z,7.24
2023-11-10T04:02:35.260Z,7.21
2023-11-10T04:05:01.844Z,7.19
2023-11-10T04:07:28.506Z,7.16
2023-11-10T04:09:55.176Z,7.17
2023-11-10T04:12:21.801Z,7.17
2023-11-10T04:14:48.417Z,7.18
2023-11-10T04:17:15.042Z,7.18
2023-11-10T04:19:41.595Z,7.17
2023-11-10T04:22:08.164Z,7.12
2023-11-10T04:24:34.965Z,7.09
2023-11-10T04:27:01.541Z,7.09
2023-11-10T04:29:28.158Z,7.09
2023-11-10T04:31:54.787Z,7.13
2023-11-10T04:34:21.383Z,7.11
2023-11-10T04:36:48.042Z,7.10
2023-11-10T04:39:14.789Z,7.08
2023-11-10T04:41:41.393Z,7.08
2023-11-10T04:44:07.965Z,7.12
2023-11-10T04:46:34.572Z,7.10
2023-11-10T04:49:01.149Z,7.07
2023-11-10T04:51:30.841Z,7.04
2023-11-10T04:53:57.427Z,7.05
2023-11-10T04:56:24.024Z,7.04
2023-11-10T04:58:50.624Z,7.03
2023-11-10T05:01:17.203Z,7.06
2023-11-10T05:03:43.972Z,7.03
2023-11-10T05:06:10.592Z,7.06
2023-11-10T05:08:37.233Z,7.08
2023-11-10T05:11:03.852Z,7.05
2023-11-10T05:13:30.415Z,7.05
2023-11-10T05:15:57.063Z,7.05
2023-11-10T05:20:53.197Z,7.07
2023-11-10T05:23:19.813Z,7.05
2023-11-10T05:25:46.507Z,7.06
2023-11-10T05:28:13.092Z,7.07
2023-11-10T05:30:39.693Z,7.08
2023-11-10T05:33:08.216Z,7.08
2023-11-10T05:35:35.034Z,7.05
2023-11-10T05:38:01.601Z,7.03
2023-11-10T05:40:28.260Z,7.01
2023-11-10T05:42:54.892Z,7.04
2023-11-10T05:45:21.511Z,7.03
2023-11-10T05:47:48.170Z,7.05
2023-11-10T05:50:14.786Z,7.07
2023-11-10T05:52:41.350Z,7.06
2023-11-10T05:55:08.180Z,7.04
2023-11-10T05:57:34.853Z,7.03
2023-11-10T06:00:01.452Z,7.06
2023-11-10T06:02:28.000Z,7.10
2023-11-10T06:04:54.752Z,7.09
2023-11-10T06:07:21.374Z,7.14
2023-11-10T06:09:48.062Z,7.12
2023-11-10T06:12:14.756Z,7.10
2023-11-10T06:14:41.352Z,7.09
2023-11-10T06:17:07.861Z,7.11
2023-11-10T06:19:34.435Z,7.08
2023-11-10T06:22:00.981Z,7.09
2023-11-10T06:24:27.597Z,7.08
2023-11-10T06:26:54.269Z,7.07
2023-11-10T06:29:20.836Z,7.01
2023-11-10T06:31:47.688Z,6.99
2023-11-10T06:34:14.622Z,7.02
2023-11-10T06:36:41.216Z,7.01
2023-11-10T06:39:07.729Z,6.99
2023-11-10T06:41:34.353Z,6.97
2023-11-10T06:44:00.948Z,7.00
2023-11-10T06:46:27.785Z,7.00
2023-11-10T06:48:54.692Z,7.00
2023-11-10T06:51:21.620Z,7.02
2023-11-10T06:53:48.384Z,7.03
2023-11-10T06:56:15.403Z,7.04
2023-11-10T06:58:41.974Z,7.05
2023-11-10T07:01:09.808Z,7.08
2023-11-10T07:03:36.551Z,7.09
2023-11-10T07:06:03.313Z,7.08
2023-11-10T07:08:29.921Z,7.13
2023-11-10T07:10:56.537Z,7.08
2023-11-10T07:13:23.116Z,7.05
2023-11-10T07:15:49.827Z,7.01
2023-11-10T07:18:16.656Z,7.02
2023-11-10T07:20:43.304Z,7.02
2023-11-10T07:23:09.905Z,7.07
2023-11-10T07:25:36.606Z,7.10
2023-11-10T07:28:03.457Z,7.14
2023-11-10T07:30:30.156Z,7.16
2023-11-10T07:32:56.895Z,7.11
2023-11-10T07:35:23.509Z,7.07
2023-11-10T07:37:50.091Z,7.00
2023-11-10T07:40:17.034Z,7.02
2023-11-10T07:42:44.206Z,6.98
2023-11-10T07:45:11.509Z,6.99
2023-11-10T07:47:38.127Z,6.97
2023-11-10T07:50:05.313Z,7.09
2023-11-10T07:52:31.860Z,7.12
2023-11-10T07:54:58.879Z,7.15
2023-11-10T07:57:28.319Z,7.19
2023-11-10T07:59:54.992Z,7.20
2023-11-10T08:02:21.518Z,7.21
2023-11-10T08:04:48.143Z,7.23
2023-11-10T08:07:14.761Z,7.26
2023-11-10T08:09:41.354Z,7.32
2023-11-10T08:12:08.181Z,7.37
2023-11-10T08:14:34.831Z,7.37
2023-11-10T08:17:01.437Z,7.37
2023-11-10T08:19:28.029Z,7.38
2023-11-10T08:21:55.336Z,7.29
2023-11-10T08:24:22.889Z,7.32
2023-11-10T08:26:49.465Z,7.36
2023-11-10T08:29:16.023Z,7.40
2023-11-10T08:31:42.646Z,7.42
2023-11-10T08:34:09.402Z,7.42
2023-11-10T08:36:36.142Z,7.45
2023-11-10T08:39:02.781Z,7.53
2023-11-10T08:41:29.393Z,7.56
2023-11-10T08:43:55.976Z,7.54
2023-11-10T08:46:22.588Z,7.56
2023-11-10T08:48:49.289Z,7.56
2023-11-10T08:51:15.903Z,7.58
2023-11-10T08:53:45.231Z,7.62
2023-11-10T08:56:12.765Z,7.69
2023-11-10T08:58:39.370Z,7.72
2023-11-10T09:01:06.033Z,7.71
2023-11-10T09:03:32.724Z,7.74
2023-11-10T09:05:59.428Z,7.74
2023-11-10T09:08:26.029Z,7.74
2023-11-10T09:10:52.574Z,7.75
2023-11-10T09:13:19.254Z,7.81
2023-11-10T09:15:53.530Z,7.83
2023-11-10T09:18:26.002Z,7.86
2023-11-10T09:20:52.624Z,7.85
2023-11-10T09:23:19.267Z,7.87
2023-11-10T09:25:45.923Z,7.91
2023-11-10T09:28:12.621Z,7.89
2023-11-10T09:30:39.261Z,7.90
2023-11-10T09:33:05.909Z,7.89
2023-11-10T09:35:32.506Z,7.90
2023-11-10T09:37:59.160Z,7.89
2023-11-10T09:40:25.737Z,7.92
2023-11-10T09:42:54.696Z,7.95
2023-11-10T09:45:23.363Z,7.95
2023-11-10T09:47:51.873Z,8.00
2023-11-10T09:50:18.594Z,8.04
2023-11-10T09:52:46.075Z,8.04
2023-11-10T09:55:12.672Z,8.00
2023-11-10T09:57:39.326Z,8.04
2023-11-10T10:00:06.517Z,8.09
2023-11-10T10:02:36.052Z,8.07
2023-11-10T10:05:04.243Z,8.02
2023-11-10T10:07:30.823Z,8.00
2023-11-10T10:09:57.521Z,8.00
2023-11-10T10:12:24.099Z,8.01
2023-11-10T10:14:54.614Z,8.01
2023-11-10T10:17:30.322Z,7.99
2023-11-10T10:20:07.183Z,7.97
2023-11-10T10:22:33.950Z,7.95
2023-11-10T10:25:00.686Z,7.82
2023-11-10T10:27:27.340Z,7.87
2023-11-10T10:29:53.929Z,7.88
2023-11-10T10:32:20.536Z,7.90
2023-11-10T10:34:47.198Z,7.90
2023-11-10T10:37:13.768Z,7.94
2023-11-10T10:39:41.172Z,7.95
2023-11-10T10:42:09.453Z,7.96
2023-11-10T10:44:36.063Z,7.97
2023-11-10T10:47:02.793Z,7.99
2023-11-10T10:49:29.394Z,8.01
2023-11-10T10:51:56.204Z,8.09
2023-11-10T10:54:22.846Z,8.14
2023-11-10T10:56:49.435Z,8.18
2023-11-10T10:59:16.624Z,8.22
2023-11-10T11:01:44.259Z,8.19
2023-11-10T11:04:26.062Z,8.25
2023-11-10T11:07:01.542Z,8.26
2023-11-10T11:09:55.831Z,8.24
2023-11-10T11:12:47.342Z,8.26
2023-11-10T11:15:23.501Z,8.29
2023-11-10T11:18:14.744Z,8.30
2023-11-10T11:20:41.350Z,8.31
2023-11-10T11:23:08.827Z,8.34
2023-11-10T11:25:37.132Z,8.36
2023-11-10T11:28:03.795Z,8.37
2023-11-10T11:30:37.456Z,8.37
2023-11-10T11:33:10.620Z,8.36
2023-11-10T11:35:46.670Z,8.36
2023-11-10T11:38:28.932Z,8.36
2023-11-10T11:40:58.613Z,8.40
2023-11-10T11:43:25.309Z,8.45
2023-11-10T11:45:56.010Z,8.48
2023-11-10T11:48:22.611Z,8.51
2023-11-10T11:50:52.369Z,8.55
2023-11-10T11:53:24.944Z,8.55
2023-11-10T11:55:54.591Z,8.51
2023-11-10T11:58:21.272Z,8.51
2023-11-10T12:00:47.905Z,8.46
2023-11-10T12:03:14.965Z,8.41
2023-11-10T12:05:42.144Z,8.41
2023-11-10T12:08:09.050Z,8.47
2023-11-10T12:10:35.624Z,8.48
2023-11-10T12:13:02.229Z,8.45
2023-11-10T12:15:28.932Z,8.43
2023-11-10T12:17:55.621Z,8.46
2023-11-10T12:20:25.175Z,8.46
2023-11-10T12:22:55.261Z,8.46
2023-11-10T12:25:22.248Z,8.46
2023-11-10T12:27:48.955Z,8.45
2023-11-10T12:30:15.700Z,8.47
2023-11-10T12:32:42.382Z,8.47
2023-11-10T12:35:09.814Z,8.50
2023-11-10T12:37:39.609Z,8.48
2023-11-10T12:40:10.177Z,8.49
2023-11-10T12:42:36.885Z,8.47
2023-11-10T12:45:08.744Z,8.51
2023-11-10T12:47:35.319Z,8.53
2023-11-10T12:50:02.504Z,8.52
2023-11-10T12:52:29.150Z,8.54
2023-11-10T12:54:55.817Z,8.55
2023-11-10T12:57:22.441Z,8.51
2023-11-10T12:59:49.083Z,8.49
2023-11-10T13:02:15.663Z,8.58
2023-11-10T13:04:42.300Z,8.66
2023-11-10T13:07:09.036Z,8.79
2023-11-10T13:09:35.676Z,8.93
2023-11-10T13:12:02.329Z,9.14
2023-11-10T13:14:28.918Z,9.30
2023-11-10T13:16:55.575Z,9.23
2023-11-10T13:19:22.168Z,9.12
2023-11-10T13:21:48.811Z,9.05
2023-11-10T13:24:15.354Z,8.99
2023-11-10T13:26:41.981Z,8.94
2023-11-10T13:29:08.557Z,8.90
2023-11-10T13:31:35.234Z,8.83
2023-11-10T13:34:01.922Z,8.75
2023-11-10T13:36:28.535Z,8.71
2023-11-10T13:38:55.159Z,8.71
2023-11-10T13:41:27.663Z,8.68
2023-11-10T13:43:56.873Z,8.68
2023-11-10T13:46:25.986Z,8.66
2023-11-10T13:48:53.140Z,8.64
2023-11-10T13:51:19.733Z,8.62
2023-11-10T13:53:46.306Z,8.62
2023-11-10T13:56:12.906Z,8.62
2023-11-10T13:58:39.525Z,8.66
2023-11-10T14:01:06.246Z,8.72
2023-11-10T14:03:39.398Z,8.82
2023-11-10T14:06:06.402Z,8.90
2023-11-10T14:08:32.945Z,8.88
2023-11-10T14:10:59.512Z,8.78
2023-11-10T14:13:26.041Z,8.70
2023-11-10T14:15:52.634Z,8.64
2023-11-10T14:18:19.196Z,8.63
2023-11-10T14:20:45.794Z,8.61
2023-11-10T14:23:12.368Z,8.61
2023-11-10T14:25:38.925Z,8.59
2023-11-10T14:28:05.560Z,8.60
2023-11-10T14:30:32.210Z,8.59
2023-11-10T14:32:58.832Z,8.58
2023-11-10T14:35:25.387Z,8.57
2023-11-10T14:37:51.969Z,8.57
2023-11-10T14:40:19.363Z,8.58
2023-11-10T14:42:46.116Z,8.58
2023-11-10T14:45:12.700Z,8.56
2023-11-10T14:47:39.956Z,8.57
2023-11-10T14:50:06.691Z,8.57
2023-11-10T14:52:33.249Z,8.56
2023-11-10T14:54:59.854Z,8.54
2023-11-10T14:57:26.462Z,8.54
2023-11-10T14:59:53.007Z,8.52
2023-11-10T15:02:19.576Z,8.53
2023-11-10T15:04:46.255Z,8.52
2023-11-10T15:07:13.281Z,8.51
2023-11-10T15:09:40.025Z,8.52
2023-11-10T15:12:10.129Z,8.51
2023-11-10T15:14:37.344Z,8.52
2023-11-10T15:17:07.276Z,8.52
2023-11-10T15:19:36.864Z,8.54
2023-11-10T15:22:03.676Z,8.52
2023-11-10T15:24:30.349Z,8.53
2023-11-10T15:26:56.929Z,8.51
2023-11-10T15:29:23.539Z,8.48
2023-11-10T15:31:50.310Z,8.45
2023-11-10T15:34:18.384Z,8.45
2023-11-10T15:36:44.971Z,8.40
2023-11-10T15:39:15.914Z,8.34
2023-11-10T15:41:43.151Z,8.30
2023-11-10T15:44:09.718Z,8.29
2023-11-10T15:46:36.420Z,8.27
2023-11-10T15:49:03.096Z,8.23
2023-11-10T15:51:33.917Z,8.24
2023-11-10T15:54:06.214Z,8.25
2023-11-10T15:56:32.807Z,8.26
2023-11-10T15:58:59.409Z,8.31
2023-11-10T16:01:26.035Z,8.34
2023-11-10T16:03:52.867Z,8.35
2023-11-10T16:06:19.506Z,8.34
2023-11-10T16:08:46.140Z,8.36
2023-11-10T16:11:12.681Z,8.36
2023-11-10T16:13:39.277Z,8.33
2023-11-10T16:16:08.919Z,8.33
2023-11-10T16:18:35.710Z,8.35
2023-11-10T16:21:02.325Z,8.33
2023-11-10T16:23:28.893Z,8.33
2023-11-10T16:25:55.460Z,8.32
2023-11-10T16:28:22.056Z,8.26
2023-11-10T16:30:48.764Z,8.34
2023-11-10T16:33:15.425Z,8.36
2023-11-10T16:35:41.949Z,8.36
2023-11-10T16:38:08.431Z,8.39
2023-11-10T16:40:34.969Z,8.40
2023-11-10T16:43:01.516Z,8.38
2023-11-10T16:45:28.093Z,8.31
2023-11-10T16:47:54.675Z,8.34
2023-11-10T16:50:21.315Z,8.33
2023-11-10T16:52:47.858Z,8.31
2023-11-10T16:55:14.559Z,8.33
2023-11-10T16:57:41.203Z,8.35
2023-11-10T17:00:08.253Z,8.35
2023-11-10T17:02:42.407Z,8.33
2023-11-10T17:05:11.917Z,8.31
2023-11-10T17:07:39.096Z,8.32
2023-11-10T17:10:07.188Z,8.33
2023-11-10T17:12:33.805Z,8.31
2023-11-10T17:15:00.320Z,8.32
2023-11-10T17:17:26.954Z,8.32
2023-11-10T17:19:53.486Z,8.31
2023-11-10T17:22:20.025Z,8.31
2023-11-10T17:24:46.632Z,8.32
2023-11-10T17:27:13.287Z,8.33
2023-11-10T17:29:39.850Z,8.33
2023-11-10T17:32:07.078Z,8.31
2023-11-10T17:34:33.834Z,8.31
2023-11-10T17:37:00.365Z,8.32
2023-11-10T17:39:27.204Z,8.30
2023-11-10T17:41:53.689Z,8.29
2023-11-10T17:44:20.332Z,8.29
2023-11-10T17:46:46.966Z,8.30
2023-11-10T17:49:13.681Z,8.30
2023-11-10T17:51:40.313Z,8.29
2023-11-10T17:54:07.101Z,8.27
2023-11-10T17:56:33.698Z,8.25
2023-11-10T17:59:00.240Z,8.25
2023-11-10T18:01:26.844Z,8.23
2023-11-10T18:03:53.539Z,8.20
2023-11-10T18:06:20.171Z,8.18
2023-11-10T18:08:47.107Z,8.16
2023-11-10T18:11:22.838Z,8.18
2023-11-10T18:13:49.230Z,8.17
2023-11-10T18:16:15.857Z,8.14
2023-11-10T18:18:42.487Z,8.10
2023-11-10T18:21:09.024Z,8.10
2023-11-10T18:23:35.527Z,8.08
2023-11-10T18:26:02.036Z,8.04
2023-11-10T18:28:28.610Z,8.03
2023-11-10T18:30:55.377Z,8.01
2023-11-10T18:33:22.001Z,7.99
2023-11-10T18:35:48.675Z,7.99
2023-11-10T18:38:15.212Z,7.99
2023-11-10T18:40:41.773Z,7.97
2023-11-10T18:43:08.381Z,7.97
2023-11-10T18:45:34.983Z,7.96
2023-11-10T18:48:01.536Z,7.96
2023-11-10T18:50:28.203Z,7.95
2023-11-10T18:52:57.321Z,7.96
2023-11-10T18:55:23.907Z,7.94
2023-11-10T18:57:50.759Z,7.94
2023-11-10T19:00:17.735Z,7.96
2023-11-10T19:02:44.385Z,7.94
2023-11-10T19:05:11.072Z,7.92
2023-11-10T19:07:37.642Z,7.89
2023-11-10T19:10:04.269Z,7.91
2023-11-10T19:12:30.815Z,7.90
2023-11-10T19:14:57.479Z,7.93
2023-11-10T19:17:24.057Z,7.94
2023-11-10T19:19:50.675Z,7.93
2023-11-10T19:22:17.286Z,7.90
2023-11-10T19:24:43.927Z,7.87
2023-11-10T19:27:10.539Z,7.90
2023-11-10T19:29:37.102Z,7.90
2023-11-10T19:32:03.738Z,7.89
2023-11-10T19:34:30.446Z,7.90
2023-11-10T19:36:57.056Z,7.90
2023-11-10T19:39:24.610Z,7.89
2023-11-10T19:41:51.521Z,7.86
2023-11-10T19:44:18.007Z,7.86
2023-11-10T19:46:44.584Z,7.85
2023-11-10T19:49:11.548Z,7.85
2023-11-10T19:56:46.519Z,7.81
2023-11-10T20:01:42.998Z,7.85
2023-11-10T20:04:09.580Z,7.86
2023-11-10T20:06:36.240Z,7.83
2023-11-10T20:09:02.866Z,7.82
2023-11-10T20:11:29.451Z,7.82
2023-11-10T20:13:55.965Z,7.84
2023-11-10T20:16:22.568Z,7.87
2023-11-10T20:18:49.131Z,7.86
2023-11-10T20:21:18.950Z,7.88
2023-11-10T20:23:45.486Z,7.85
2023-11-10T20:26:12.073Z,7.85
2023-11-10T20:28:38.872Z,7.87
2023-11-10T20:31:05.546Z,7.88
2023-11-10T20:33:33.654Z,7.89
2023-11-10T20:36:00.335Z,7.89
2023-11-10T20:38:26.865Z,7.87
2023-11-10T20:40:53.455Z,7.89
2023-11-10T20:43:20.480Z,7.88
2023-11-10T20:45:47.350Z,7.87
2023-11-10T20:48:14.079Z,7.89
2023-11-10T20:50:40.707Z,7.87
2023-11-10T20:53:07.759Z,7.85
2023-11-10T20:55:35.237Z,7.86
2023-11-10T20:58:01.809Z,7.84
2023-11-10T21:00:28.447Z,7.84
2023-11-10T21:02:55.280Z,7.86
2023-11-10T21:05:21.999Z,7.86
2023-11-10T21:07:48.522Z,7.88
2023-11-10T21:10:15.106Z,7.89
2023-11-10T21:12:42.767Z,7.89
2023-11-10T21:15:10.418Z,7.84
2023-11-10T21:17:37.067Z,7.87
2023-11-10T21:20:04.046Z,7.88
2023-11-10T21:22:30.597Z,7.86
2023-11-10T21:24:57.181Z,7.86
2023-11-10T21:27:23.809Z,7.85
2023-11-10T21:29:50.395Z,7.82
2023-11-10T21:32:17.228Z,7.81
2023-11-10T21:34:44.381Z,7.79
2023-11-10T21:37:10.924Z,7.80
2023-11-10T21:39:37.652Z,7.82
2023-11-10T21:42:04.673Z,7.83
2023-11-10T21:44:31.316Z,7.83
2023-11-10T21:46:57.938Z,7.83
2023-11-10T21:49:24.908Z,7.83
2023-11-10T21:51:52.007Z,7.82
2023-11-10T21:54:18.646Z,7.84
2023-11-10T21:56:45.240Z,7.79
2023-11-10T21:59:11.898Z,7.80
2023-11-10T22:01:38.491Z,7.81
2023-11-10T22:04:05.174Z,7.83
2023-11-10T22:06:31.847Z,7.81
2023-11-10T22:08:58.420Z,7.83
2023-11-10T22:11:25.063Z,7.81
2023-11-10T22:13:51.604Z,7.78
2023-11-10T22:16:18.193Z,7.79
2023-11-10T22:18:45.368Z,7.80
2023-11-10T22:21:11.999Z,7.79
2023-11-10T22:23:38.627Z,7.78
2023-11-10T22:26:05.154Z,7.77
2023-11-10T22:28:34.485Z,7.75
2023-11-10T22:31:01.189Z,7.79
2023-11-10T22:33:27.918Z,7.79
2023-11-10T22:35:54.566Z,7.77
2023-11-10T22:38:21.164Z,7.77
2023-11-10T22:40:47.755Z,7.75
2023-11-10T22:43:14.326Z,7.73
2023-11-10T22:45:41.005Z,7.72
2023-11-10T22:48:07.777Z,7.74
2023-11-10T22:50:34.427Z,7.74
2023-11-10T22:53:00.996Z,7.74
2023-11-10T22:55:27.547Z,7.74
2023-11-10T22:57:54.140Z,7.77
2023-11-10T23:00:20.758Z,7.81
2023-11-10T23:02:47.442Z,7.76
2023-11-10T23:05:14.057Z,7.74
2023-11-10T23:07:40.656Z,7.74
2023-11-10T23:10:07.680Z,7.75
2023-11-10T23:12:34.275Z,7.75
2023-11-10T23:15:00.930Z,7.75
2023-11-10T23:17:27.560Z,7.74
2023-11-10T23:19:54.194Z,7.74
2023-11-10T23:22:20.775Z,7.74
2023-11-10T23:24:47.342Z,7.74
2023-11-10T23:27:14.149Z,7.76
2023-11-10T23:29:41.879Z,7.76
2023-11-10T23:32:08.489Z,7.77
2023-11-10T23:34:35.077Z,7.77
2023-11-10T23:37:01.625Z,7.76
2023-11-10T23:39:28.208Z,7.76
2023-11-10T23:41:54.794Z,7.75
2023-11-10T23:44:21.432Z,7.77
2023-11-10T23:46:48.058Z,7.77
2023-11-10T23:49:14.758Z,7.74
2023-11-10T23:51:41.420Z,7.76
2023-11-10T23:54:08.118Z,7.75
2023-11-10T23:56:34.742Z,7.76
2023-11-10T23:59:01.297Z,7.81
